Airfield :
LOGIN :

Register | Disclaimer

   EN    FR    IT 

 










Legend :    VFR   Marginal VFR   IFR   Intensive IFR   Very Intensive IFR
Visi :
Ceiling :
>= 8 km
>= 3000ft
5 to 8 km
1000 to 3000 ft
1500m to 5 km
500 to 1000 ft
800 to 1500m
200 to 500 ft
< 800m
< 200 ft
Symbols :   Thunderstorms  Fog  Heavy snow  Heavy precipitations  Wind > 20 kt
SIGMETs :     Misc.  Thunderstorms  Icing  Turbulence  Mountain Waves  Volcanic Ashes







- Airport Elevation : 423 ft
- IATA code : PIS
- Download approach charts


LFBI - Poitiers

CURRENT METAR :
  • 250330Z AUTO 23010KT 9999 FEW027 OVC060 09/08 Q1000 NOSIG

EXPIRED METARs :
  • 250300Z AUTO 22011KT 9999 -RA FEW029/// SCT041/// OVC058/// ///TCU 09/08 Q1000 TEMPO 19015G25KT 3000 RA SCT010 BKN030CB
  • 250230Z AUTO 23009KT 9999 -RA FEW011/// BKN048/// BKN056/// ///CB 09/08 Q0999 TEMPO 19015G25KT 3000 RA BECMG BKN040
  • 250200Z AUTO 23014G26KT 160V260 9999 -RA FEW011/// BKN029/// OVC035/// ///CB 10/08 Q0999 TEMPO 3000 RA
  • 250130Z AUTO 17003KT 120V260 9999 -RA FEW013/// SCT018/// BKN027/// ///CB 11/09 Q0998 TEMPO 19015G25KT 3000 RA
  • 250100Z AUTO 23007KT 9999 -RA BKN038/// OVC048/// ///TCU 11/09 Q0998 TEMPO 19015G25KT 3000 RA SCT010 BKN030CB

TAF TAF LFBI
Valid from the 25 at 00:00 until the 26 at 00:00 UTC


242300Z 2500/2524 18010KT 9999 BKN040
TEMPO 2500/2504 19015G25KT 3000 RA SCT010 BKN030CB
PROB30 2500/2502 19018G35KT
TEMPO 2507/2518 4000 SHRA BKN030TCU
PROB30
TEMPO 2511/2514 24015G35KT 2500 TSRA BKN015CB
No reported NOTAMs for that airfield.
3 SIGMETs reported for the Bordeaux FIR (LFBB) :
 
Severe mountain waves
LFBB SIGMET 2 VALID 250300/250700 LFPW
LFBB BORDEAUX FIR/UIR SEV MTW FCST WI N4245 E00230 - N4215 E00230 - N4230 E00045 - N4300 E00100 - N4245 E00230 SFC/FL370 STNR WKN=
Severe turbulence
LFBB SIGMET 11 VALID 242300/250300 LFPW
LFBB BORDEAUX FIR/UIR SEV TURB FCST WI N4630 E00300 - N4315 E00230 - N4330 E00130 - N4630 E00300 SFC/FL080 STNR NC=
Severe turbulence
LFBB SIGMET 1 VALID 250300/250700 LFPW
LFBB BORDEAUX FIR/UIR SEV TURB FCST WI N4630 E00300 - N4315 E00230 - N4330 E00130 - N4630 E00300 SFC/FL080 STNR WKN=



MET'MAP, your aeronautical weather chart ! - Copyright ORBIFLY December 2007 - Disclaimer

ORBIFLY MET'MAP TEAM :

Programming & Development : Alexandra Zaïnal
Concept & Development : Baudouin d'Aumeries
Co-Development & Prog : Marc-Olivier Méhu
Technical & hardware support : Manuel Goepfert

Contact : metmap@orbifly.com




SOURCES & CREDITS :

   NOAA